createdAt,value
2019-03-09T00:01:24.853Z,23.81
2019-03-09T00:03:59.082Z,23.83
2019-03-09T00:06:33.284Z,23.81
2019-03-09T00:09:09.316Z,23.78
2019-03-09T00:11:45.186Z,23.78
2019-03-09T00:14:19.795Z,23.80
2019-03-09T00:16:53.936Z,23.81
2019-03-09T00:19:28.548Z,23.81
2019-03-09T00:22:03.163Z,23.79
2019-03-09T00:24:47.037Z,23.80
2019-03-09T00:27:30.078Z,23.75
2019-03-09T00:30:14.677Z,23.76
2019-03-09T00:32:48.864Z,23.74
2019-03-09T00:35:23.078Z,23.72
2019-03-09T00:37:57.274Z,23.76
2019-03-09T00:40:31.665Z,23.78
2019-03-09T00:43:06.037Z,23.75
2019-03-09T00:45:40.153Z,23.74
2019-03-09T00:48:14.615Z,23.74
2019-03-09T00:50:49.129Z,23.72
2019-03-09T00:53:24.139Z,23.71
2019-03-09T00:55:58.375Z,23.71
2019-03-09T00:58:33.643Z,23.71
2019-03-09T01:01:07.942Z,23.73
2019-03-09T01:03:43.008Z,23.69
2019-03-09T01:06:17.177Z,23.71
2019-03-09T01:08:51.319Z,23.69
2019-03-09T01:11:26.589Z,23.70
2019-03-09T01:14:00.786Z,23.70
2019-03-09T01:16:35.057Z,23.70
2019-03-09T01:19:08.987Z,23.68
2019-03-09T01:21:44.289Z,23.67
2019-03-09T01:24:18.241Z,23.67
2019-03-09T01:26:53.468Z,23.65
2019-03-09T01:29:27.721Z,23.63
2019-03-09T01:32:01.762Z,23.64
2019-03-09T01:34:35.915Z,23.66
2019-03-09T01:37:11.076Z,23.65
2019-03-09T01:39:45.214Z,23.64
2019-03-09T01:42:19.555Z,23.62
2019-03-09T01:44:53.829Z,23.60
2019-03-09T01:47:28.251Z,23.54
2019-03-09T01:50:02.535Z,23.55
2019-03-09T01:52:37.763Z,23.56
2019-03-09T01:55:12.642Z,23.57
2019-03-09T01:57:47.029Z,23.58
2019-03-09T02:00:21.749Z,23.55
2019-03-09T02:02:55.833Z,23.57
2019-03-09T02:05:30.196Z,23.55
2019-03-09T02:08:04.415Z,23.56
2019-03-09T02:10:38.837Z,23.55
2019-03-09T02:13:13.076Z,23.54
2019-03-09T02:15:47.552Z,23.60
2019-03-09T02:18:21.768Z,23.54
2019-03-09T02:20:55.945Z,23.52
2019-03-09T02:23:30.291Z,23.51
2019-03-09T02:26:04.558Z,23.48
2019-03-09T02:28:38.853Z,23.49
2019-03-09T02:31:13.085Z,23.49
2019-03-09T02:33:48.663Z,23.50
2019-03-09T02:36:23.096Z,23.49
2019-03-09T02:39:14.721Z,23.49
2019-03-09T02:41:49.153Z,23.48
2019-03-09T02:44:23.682Z,23.49
2019-03-09T02:46:58.859Z,23.48
2019-03-09T02:49:34.107Z,23.46
2019-03-09T02:52:08.351Z,23.45
2019-03-09T02:54:42.757Z,23.47
2019-03-09T02:57:17.856Z,23.45
2019-03-09T02:59:52.209Z,23.45
2019-03-09T03:02:34.160Z,23.44
2019-03-09T03:05:08.857Z,23.46
2019-03-09T03:07:43.351Z,23.44
2019-03-09T03:10:18.151Z,23.42
2019-03-09T03:12:53.609Z,23.43
2019-03-09T03:15:46.158Z,23.44
2019-03-09T03:18:21.388Z,23.41
2019-03-09T03:20:55.811Z,23.41
2019-03-09T03:23:31.051Z,23.40
2019-03-09T03:26:05.235Z,23.40
2019-03-09T03:28:39.284Z,23.39
2019-03-09T03:31:13.434Z,23.38
2019-03-09T03:33:47.712Z,23.37
2019-03-09T03:36:21.926Z,23.45
2019-03-09T03:38:56.190Z,23.32
2019-03-09T03:41:30.338Z,23.22
2019-03-09T03:44:04.482Z,23.18
2019-03-09T03:46:38.760Z,23.14
2019-03-09T03:49:13.139Z,23.10
2019-03-09T03:51:47.225Z,23.07
2019-03-09T03:54:21.458Z,23.06
2019-03-09T03:56:55.750Z,23.05
2019-03-09T03:59:30.231Z,23.05
2019-03-09T04:02:06.613Z,23.03
2019-03-09T04:04:41.011Z,23.03
2019-03-09T04:07:15.516Z,23.03
2019-03-09T04:09:49.817Z,23.01
2019-03-09T04:12:24.143Z,23.00
2019-03-09T04:14:58.613Z,23.01
2019-03-09T04:17:33.134Z,23.00
2019-03-09T04:20:07.650Z,23.00
2019-03-09T04:22:41.945Z,23.00
2019-03-09T04:25:16.410Z,22.99
2019-03-09T04:27:51.284Z,22.98
2019-03-09T04:30:25.607Z,22.99
2019-03-09T04:32:59.753Z,22.96
2019-03-09T04:35:33.885Z,22.95
2019-03-09T04:38:08.157Z,22.95
2019-03-09T04:40:42.111Z,22.94
2019-03-09T04:43:16.375Z,22.94
2019-03-09T04:45:50.334Z,22.94
2019-03-09T04:48:24.391Z,22.94
2019-03-09T04:50:58.669Z,22.94
2019-03-09T04:53:33.021Z,22.93
2019-03-09T04:56:07.028Z,22.93
2019-03-09T04:58:41.286Z,22.92
2019-03-09T05:01:15.438Z,22.91
2019-03-09T05:03:58.475Z,22.92
2019-03-09T05:06:32.726Z,22.90
2019-03-09T05:09:29.379Z,22.93
2019-03-09T05:12:04.027Z,22.96
2019-03-09T05:14:38.340Z,23.22
2019-03-09T05:17:12.380Z,23.23
2019-03-09T05:19:46.548Z,23.23
2019-03-09T05:22:20.759Z,23.24
2019-03-09T05:24:54.981Z,23.29
2019-03-09T05:27:29.152Z,23.29
2019-03-09T05:30:03.135Z,23.28
2019-03-09T05:32:37.412Z,23.31
2019-03-09T05:35:12.615Z,23.29
2019-03-09T05:37:46.644Z,23.31
2019-03-09T05:40:20.903Z,23.31
2019-03-09T05:42:55.422Z,23.31
2019-03-09T05:45:29.917Z,23.31
2019-03-09T05:48:04.229Z,23.32
2019-03-09T05:50:38.306Z,23.32
2019-03-09T05:53:14.908Z,23.19
2019-03-09T05:55:50.344Z,23.11
2019-03-09T05:58:24.439Z,23.05
2019-03-09T06:00:58.539Z,23.01
2019-03-09T06:03:32.866Z,22.99
2019-03-09T06:06:17.845Z,22.97
2019-03-09T06:08:53.233Z,22.95
2019-03-09T06:11:27.141Z,22.95
2019-03-09T06:14:01.487Z,22.93
2019-03-09T06:16:35.667Z,22.92
2019-03-09T06:19:09.902Z,22.93
2019-03-09T06:21:44.310Z,22.93
2019-03-09T06:24:18.621Z,22.92
2019-03-09T06:26:53.915Z,22.93
2019-03-09T06:29:28.375Z,22.91
2019-03-09T06:32:36.624Z,22.90
2019-03-09T06:35:10.944Z,22.92
2019-03-09T06:37:46.646Z,22.91
2019-03-09T06:40:21.903Z,22.91
2019-03-09T06:42:56.182Z,22.90
2019-03-09T06:45:30.484Z,22.89
2019-03-09T06:48:04.866Z,22.89
2019-03-09T06:50:38.985Z,22.88
2019-03-09T06:53:13.479Z,22.88
2019-03-09T06:55:48.889Z,22.88
2019-03-09T06:58:24.165Z,22.86
2019-03-09T07:00:58.294Z,22.89
2019-03-09T07:03:32.584Z,23.18
2019-03-09T07:06:07.017Z,23.24
2019-03-09T07:08:41.613Z,23.27
2019-03-09T07:11:16.925Z,23.27
2019-03-09T07:13:53.178Z,23.28
2019-03-09T07:16:27.007Z,23.30
2019-03-09T07:19:01.627Z,23.29
2019-03-09T07:21:37.102Z,23.33
2019-03-09T07:24:11.249Z,23.36
2019-03-09T07:26:45.636Z,23.35
2019-03-09T07:29:20.109Z,23.38
2019-03-09T07:31:54.364Z,23.42
2019-03-09T07:34:29.100Z,23.40
2019-03-09T07:37:03.372Z,23.42
2019-03-09T07:39:37.597Z,23.41
2019-03-09T07:42:11.928Z,23.43
2019-03-09T07:44:46.452Z,23.43
2019-03-09T07:47:20.878Z,23.49
2019-03-09T07:49:55.049Z,23.51
2019-03-09T07:52:39.959Z,23.52
2019-03-09T07:55:15.736Z,23.50
2019-03-09T07:57:50.146Z,23.51
2019-03-09T08:00:24.819Z,23.52
2019-03-09T08:02:59.378Z,23.53
2019-03-09T08:05:35.975Z,23.52
2019-03-09T08:08:10.342Z,23.52
2019-03-09T08:10:44.451Z,23.52
2019-03-09T08:13:18.981Z,23.51
2019-03-09T08:15:52.980Z,23.53
2019-03-09T08:18:27.477Z,23.54
2019-03-09T08:21:01.635Z,23.56
2019-03-09T08:23:36.027Z,23.56
2019-03-09T08:26:10.245Z,23.57
2019-03-09T08:28:44.563Z,23.59
2019-03-09T08:31:18.831Z,23.59
2019-03-09T08:33:53.190Z,23.56
2019-03-09T08:36:27.721Z,23.55
2019-03-09T08:39:02.063Z,23.55
2019-03-09T08:41:37.785Z,23.56
2019-03-09T08:44:13.296Z,23.56
2019-03-09T08:46:47.482Z,23.56
2019-03-09T08:49:21.859Z,23.60
2019-03-09T08:51:56.125Z,23.61
2019-03-09T08:54:30.616Z,23.61
2019-03-09T08:57:05.885Z,23.63
2019-03-09T08:59:40.325Z,23.64
2019-03-09T09:02:14.451Z,23.66
2019-03-09T09:04:48.521Z,23.67
2019-03-09T09:07:22.800Z,23.68
2019-03-09T09:09:57.205Z,23.68
2019-03-09T09:12:31.339Z,23.70
2019-03-09T09:15:06.092Z,23.74
2019-03-09T09:17:40.680Z,23.70
2019-03-09T09:20:17.293Z,23.70
2019-03-09T09:22:51.604Z,23.72
2019-03-09T09:25:25.853Z,23.72
2019-03-09T09:28:00.554Z,23.72
2019-03-09T09:30:34.825Z,23.73
2019-03-09T09:33:09.324Z,23.72
2019-03-09T09:35:43.587Z,23.71
2019-03-09T09:38:18.133Z,23.72
2019-03-09T09:40:52.498Z,23.75
2019-03-09T09:43:26.806Z,23.75
2019-03-09T09:46:01.060Z,23.72
2019-03-09T09:48:35.528Z,23.76
2019-03-09T09:51:10.437Z,23.73
2019-03-09T09:53:45.232Z,23.75
2019-03-09T09:56:21.660Z,23.77
2019-03-09T09:58:55.769Z,23.76
2019-03-09T10:01:30.149Z,23.79
2019-03-09T10:04:05.898Z,23.80
2019-03-09T10:06:40.336Z,23.84
2019-03-09T10:09:14.759Z,23.83
2019-03-09T10:11:48.812Z,23.79
2019-03-09T10:14:22.971Z,23.80
2019-03-09T10:16:58.368Z,23.81
2019-03-09T10:19:33.834Z,23.82
2019-03-09T10:22:08.136Z,23.85
2019-03-09T10:24:46.214Z,23.87
2019-03-09T10:27:20.432Z,23.84
2019-03-09T10:29:54.524Z,23.87
2019-03-09T10:32:28.561Z,23.86
2019-03-09T10:35:02.615Z,23.87
2019-03-09T10:37:36.968Z,23.90
2019-03-09T10:40:11.421Z,23.90
2019-03-09T10:42:46.066Z,23.92
2019-03-09T10:45:20.629Z,23.96
2019-03-09T10:47:54.880Z,23.94
2019-03-09T10:50:32.219Z,23.96
2019-03-09T10:53:08.332Z,23.97
2019-03-09T10:55:45.871Z,23.96
2019-03-09T10:58:21.195Z,23.98
2019-03-09T11:00:55.315Z,23.98
2019-03-09T11:03:29.507Z,24.01
2019-03-09T11:06:04.086Z,24.02
2019-03-09T11:08:38.423Z,24.02
2019-03-09T11:11:12.632Z,24.04
2019-03-09T11:13:51.835Z,24.01
2019-03-09T11:16:23.130Z,24.05
2019-03-09T11:18:57.498Z,24.05
2019-03-09T11:21:31.567Z,24.05
2019-03-09T11:24:06.180Z,24.06
2019-03-09T11:26:40.590Z,24.07
2019-03-09T11:29:14.825Z,24.12
2019-03-09T11:31:50.196Z,24.11
2019-03-09T11:34:24.638Z,24.11
2019-03-09T11:36:58.793Z,24.13
2019-03-09T11:39:32.931Z,24.14
2019-03-09T11:42:08.563Z,24.15
2019-03-09T11:44:42.830Z,24.17
2019-03-09T11:47:17.021Z,24.14
2019-03-09T11:49:51.419Z,24.18
2019-03-09T11:52:25.531Z,24.17
2019-03-09T11:54:59.663Z,24.18
2019-03-09T11:57:33.969Z,24.17
2019-03-09T12:00:08.791Z,24.15
2019-03-09T12:02:42.981Z,24.16
2019-03-09T12:05:17.320Z,24.18
2019-03-09T12:07:51.371Z,24.17
2019-03-09T12:10:25.615Z,24.20
2019-03-09T12:12:59.622Z,24.21
2019-03-09T12:15:33.935Z,24.22
2019-03-09T12:18:10.047Z,24.22
2019-03-09T12:20:44.368Z,24.23
2019-03-09T12:23:23.842Z,24.26
2019-03-09T12:25:58.117Z,24.29
2019-03-09T12:28:32.385Z,24.30
2019-03-09T12:31:06.733Z,24.30
2019-03-09T12:33:41.083Z,24.23
2019-03-09T12:36:15.363Z,24.12
2019-03-09T12:38:49.419Z,24.05
2019-03-09T12:41:23.811Z,23.99
2019-03-09T12:43:57.753Z,23.96
2019-03-09T12:46:32.066Z,23.93
2019-03-09T12:49:06.436Z,23.92
2019-03-09T12:51:40.657Z,23.90
2019-03-09T12:54:14.974Z,23.89
2019-03-09T12:56:50.225Z,23.88
2019-03-09T12:59:24.494Z,23.89
2019-03-09T13:01:58.718Z,23.88
2019-03-09T13:04:32.828Z,23.87
2019-03-09T13:07:07.120Z,23.87
2019-03-09T13:09:41.148Z,23.87
2019-03-09T13:12:16.403Z,23.88
2019-03-09T13:14:50.518Z,23.87
2019-03-09T13:17:24.900Z,23.86
2019-03-09T13:19:59.367Z,23.85
2019-03-09T13:22:33.590Z,23.84
2019-03-09T13:25:08.060Z,23.84
2019-03-09T13:27:42.245Z,23.85
2019-03-09T13:30:20.858Z,23.83
2019-03-09T13:32:56.289Z,23.83
2019-03-09T13:35:30.562Z,23.83
2019-03-09T13:38:04.783Z,23.83
2019-03-09T13:40:39.234Z,23.83
2019-03-09T13:43:13.395Z,23.83
2019-03-09T13:45:47.706Z,23.84
2019-03-09T13:48:24.159Z,23.84
2019-03-09T13:51:00.482Z,23.84
2019-03-09T13:53:35.115Z,23.83
2019-03-09T13:56:09.349Z,23.83
2019-03-09T13:58:43.843Z,23.83
2019-03-09T14:01:18.186Z,23.84
2019-03-09T14:03:52.802Z,23.82
2019-03-09T14:06:27.360Z,23.83
2019-03-09T14:09:01.676Z,23.83
2019-03-09T14:11:37.380Z,23.85
2019-03-09T14:14:12.075Z,23.84
2019-03-09T14:16:46.327Z,23.83
2019-03-09T14:19:21.792Z,23.85
2019-03-09T14:21:56.288Z,23.86
2019-03-09T14:24:30.629Z,23.85
2019-03-09T14:27:05.353Z,23.86
2019-03-09T14:29:39.953Z,23.85
2019-03-09T14:32:14.561Z,23.85
2019-03-09T14:34:48.945Z,23.86
2019-03-09T14:37:23.292Z,23.85
2019-03-09T14:39:57.671Z,23.86
2019-03-09T14:42:31.981Z,23.85
2019-03-09T14:45:06.305Z,23.86
2019-03-09T14:47:40.629Z,23.86
2019-03-09T14:50:15.443Z,23.86
2019-03-09T14:52:49.836Z,23.86
2019-03-09T14:55:24.343Z,23.85
2019-03-09T14:57:58.580Z,24.39
2019-03-09T15:00:32.905Z,24.64
2019-03-09T15:03:07.719Z,24.64
2019-03-09T15:05:41.862Z,24.57
2019-03-09T15:08:16.145Z,24.53
2019-03-09T15:10:50.449Z,24.54
2019-03-09T15:13:25.702Z,24.57
2019-03-09T15:15:59.890Z,24.54
2019-03-09T15:18:34.050Z,24.53
2019-03-09T15:21:08.434Z,24.59
2019-03-09T15:23:43.702Z,24.54
2019-03-09T15:26:18.411Z,24.54
2019-03-09T15:28:52.544Z,24.54
2019-03-09T15:31:27.898Z,24.63
2019-03-09T15:34:02.466Z,24.59
2019-03-09T15:36:36.965Z,24.66
2019-03-09T15:39:11.514Z,24.70
2019-03-09T15:41:48.093Z,24.68
2019-03-09T15:44:22.787Z,24.65
2019-03-09T15:46:57.142Z,24.65
2019-03-09T15:49:31.691Z,24.65
2019-03-09T15:52:06.078Z,24.66
2019-03-09T15:54:40.551Z,24.83
2019-03-09T15:57:16.051Z,24.87
2019-03-09T15:59:50.078Z,24.87
2019-03-09T16:02:25.635Z,24.85
2019-03-09T16:04:59.965Z,24.87
2019-03-09T16:07:35.598Z,24.84
2019-03-09T16:10:10.652Z,24.91
2019-03-09T16:12:45.194Z,24.86
2019-03-09T16:15:19.714Z,24.90
2019-03-09T16:17:54.264Z,24.94
2019-03-09T16:20:30.482Z,24.94
2019-03-09T16:23:04.641Z,24.93
2019-03-09T16:25:39.059Z,24.87
2019-03-09T16:28:14.293Z,24.89
2019-03-09T16:30:48.572Z,24.90
2019-03-09T16:33:22.830Z,24.93
2019-03-09T16:35:57.065Z,24.94
2019-03-09T16:38:34.426Z,24.92
2019-03-09T16:41:09.128Z,24.97
2019-03-09T16:43:43.241Z,25.01
2019-03-09T16:46:17.687Z,25.02
2019-03-09T16:48:53.222Z,25.00
2019-03-09T16:51:27.450Z,24.94
2019-03-09T16:57:05.087Z,25.05
2019-03-09T16:59:39.558Z,25.05
2019-03-09T17:02:13.846Z,25.01
2019-03-09T17:04:48.075Z,25.04
2019-03-09T17:07:22.277Z,25.03
2019-03-09T17:09:56.388Z,24.97
2019-03-09T17:12:30.915Z,24.95
2019-03-09T17:15:05.008Z,25.03
2019-03-09T17:17:39.348Z,25.10
2019-03-09T17:20:13.994Z,25.06
2019-03-09T17:22:48.375Z,25.13
2019-03-09T17:25:22.623Z,25.12
2019-03-09T17:27:57.915Z,25.09
2019-03-09T17:30:31.948Z,25.05
2019-03-09T17:33:06.572Z,25.07
2019-03-09T17:35:41.122Z,25.12
2019-03-09T17:38:15.660Z,25.14
2019-03-09T17:40:50.001Z,25.17
2019-03-09T17:43:25.416Z,25.16
2019-03-09T17:45:59.909Z,25.13
2019-03-09T17:48:34.162Z,25.13
2019-03-09T17:51:08.521Z,25.15
2019-03-09T17:53:42.748Z,25.07
2019-03-09T17:56:17.077Z,25.07
2019-03-09T17:58:51.148Z,25.04
2019-03-09T18:01:25.299Z,25.07
2019-03-09T18:03:59.626Z,25.09
2019-03-09T18:06:34.072Z,25.10
2019-03-09T18:09:09.726Z,25.11
2019-03-09T18:11:43.988Z,25.10
2019-03-09T18:14:18.390Z,25.06
2019-03-09T18:16:55.261Z,25.08
2019-03-09T18:19:30.126Z,25.08
2019-03-09T18:22:04.259Z,25.09
2019-03-09T18:24:38.766Z,25.11
2019-03-09T18:27:13.939Z,25.11
2019-03-09T18:29:48.125Z,25.10
2019-03-09T18:32:22.467Z,25.12
2019-03-09T18:34:56.646Z,25.16
2019-03-09T18:37:30.717Z,25.19
2019-03-09T18:40:04.784Z,25.17
2019-03-09T18:42:38.921Z,25.19
2019-03-09T18:45:14.406Z,25.18
2019-03-09T18:47:48.421Z,25.17
2019-03-09T18:50:22.690Z,25.16
2019-03-09T18:52:57.062Z,25.21
2019-03-09T18:55:32.172Z,25.19
2019-03-09T18:58:06.583Z,25.16
2019-03-09T19:00:41.884Z,25.14
2019-03-09T19:03:16.303Z,25.13
2019-03-09T19:05:50.673Z,25.10
2019-03-09T19:08:24.790Z,25.13
2019-03-09T19:10:59.057Z,25.11
2019-03-09T19:13:35.552Z,25.10
2019-03-09T19:16:11.487Z,25.10
2019-03-09T19:18:45.703Z,25.08
2019-03-09T19:21:19.798Z,25.10
2019-03-09T19:23:54.100Z,25.08
2019-03-09T19:26:28.095Z,25.10
2019-03-09T19:29:02.571Z,25.08
2019-03-09T19:31:36.913Z,25.08
2019-03-09T19:34:11.138Z,25.07
2019-03-09T19:36:45.336Z,25.06
2019-03-09T19:39:19.540Z,25.10
2019-03-09T19:41:53.650Z,25.07
2019-03-09T19:44:27.906Z,25.08
2019-03-09T19:47:02.422Z,25.08
2019-03-09T19:49:37.467Z,25.05
2019-03-09T19:52:11.996Z,25.10
2019-03-09T19:54:46.326Z,25.09
2019-03-09T19:57:20.501Z,25.10
2019-03-09T19:59:54.805Z,25.06
2019-03-09T20:02:29.272Z,25.05
2019-03-09T20:05:04.776Z,25.03
2019-03-09T20:07:39.107Z,24.99
2019-03-09T20:10:14.534Z,25.03
2019-03-09T20:12:48.789Z,25.01
2019-03-09T20:15:23.364Z,25.00
2019-03-09T20:17:57.696Z,24.99
2019-03-09T20:20:31.919Z,24.98
2019-03-09T20:23:06.206Z,24.97
2019-03-09T20:25:40.243Z,24.95
2019-03-09T20:28:14.508Z,24.94
2019-03-09T20:30:48.520Z,24.96
2019-03-09T20:33:23.029Z,24.95
2019-03-09T20:35:57.392Z,24.94
2019-03-09T20:38:32.585Z,24.93
2019-03-09T20:41:07.823Z,24.92
2019-03-09T20:43:42.032Z,24.94
2019-03-09T20:46:16.388Z,24.90
2019-03-09T20:48:50.549Z,24.91
2019-03-09T20:51:24.818Z,24.89
2019-03-09T20:53:59.031Z,24.91
2019-03-09T20:56:33.954Z,24.91
2019-03-09T20:59:08.206Z,24.89
2019-03-09T21:01:43.368Z,24.87
2019-03-09T21:04:17.645Z,24.88
2019-03-09T21:06:51.855Z,24.88
2019-03-09T21:09:25.965Z,24.88
2019-03-09T21:12:00.302Z,24.88
2019-03-09T21:14:34.350Z,24.89
2019-03-09T21:17:08.580Z,24.89
2019-03-09T21:19:42.874Z,24.85
2019-03-09T21:22:17.234Z,24.86
2019-03-09T21:24:51.285Z,24.84
2019-03-09T21:27:25.475Z,24.85
2019-03-09T21:29:59.527Z,24.83
2019-03-09T21:32:33.782Z,24.83
2019-03-09T21:35:08.228Z,24.82
2019-03-09T21:37:42.591Z,24.81
2019-03-09T21:40:16.913Z,24.80
2019-03-09T21:42:51.387Z,24.82
2019-03-09T21:45:25.630Z,24.79
2019-03-09T21:48:01.017Z,24.79
2019-03-09T21:50:35.197Z,24.77
2019-03-09T21:53:10.440Z,24.77
2019-03-09T21:55:44.873Z,24.76
2019-03-09T21:58:19.069Z,24.78
2019-03-09T22:00:53.447Z,24.78
2019-03-09T22:03:27.544Z,24.78
2019-03-09T22:06:06.011Z,24.76
2019-03-09T22:08:37.909Z,24.76
2019-03-09T22:11:12.339Z,24.75
2019-03-09T22:13:46.271Z,24.77
2019-03-09T22:16:20.764Z,24.73
2019-03-09T22:18:54.957Z,24.74
2019-03-09T22:21:29.192Z,24.73
2019-03-09T22:24:03.407Z,24.73
2019-03-09T22:26:37.346Z,24.71
2019-03-09T22:29:13.641Z,24.73
2019-03-09T22:31:47.638Z,24.70
2019-03-09T22:34:21.707Z,24.72
2019-03-09T22:36:56.390Z,24.71
2019-03-09T22:39:30.508Z,24.69
2019-03-09T22:42:04.761Z,24.69
2019-03-09T22:44:38.970Z,24.67
2019-03-09T22:47:13.151Z,24.68
2019-03-09T22:49:47.229Z,24.70
2019-03-09T22:52:21.364Z,24.68
2019-03-09T22:54:55.734Z,24.68
2019-03-09T22:57:30.210Z,24.66
2019-03-09T23:00:04.258Z,24.65
2019-03-09T23:02:40.138Z,24.64
2019-03-09T23:05:14.302Z,24.67
2019-03-09T23:07:49.740Z,24.65
2019-03-09T23:10:25.180Z,24.64
2019-03-09T23:12:59.562Z,24.64
2019-03-09T23:15:35.580Z,24.65
2019-03-09T23:18:10.068Z,24.60
2019-03-09T23:20:44.471Z,24.61
2019-03-09T23:23:18.789Z,24.62
2019-03-09T23:25:53.048Z,24.60
2019-03-09T23:28:27.316Z,24.63
2019-03-09T23:31:03.759Z,24.59
2019-03-09T23:33:38.033Z,24.59
2019-03-09T23:36:13.627Z,24.59
2019-03-09T23:38:48.080Z,24.57
2019-03-09T23:41:22.622Z,24.56
2019-03-09T23:43:56.924Z,24.56
2019-03-09T23:46:31.155Z,24.56
2019-03-09T23:49:05.398Z,24.55
2019-03-09T23:51:39.562Z,24.55
2019-03-09T23:54:13.647Z,24.55
2019-03-09T23:56:47.738Z,24.52
2019-03-09T23:59:21.991Z,24.53
